createdAt,value
2022-08-30T00:04:07.277Z,2.70
2022-08-30T00:09:09.089Z,2.60
2022-08-30T00:14:10.740Z,2.90
2022-08-30T00:19:12.649Z,2.80
2022-08-30T00:24:14.391Z,2.47
2022-08-30T00:29:16.252Z,3.28
2022-08-30T00:34:18.227Z,2.53
2022-08-30T00:39:19.953Z,3.30
2022-08-30T00:44:21.565Z,2.83
2022-08-30T00:49:24.451Z,3.25
2022-08-30T00:54:26.370Z,3.22
2022-08-30T00:59:29.169Z,3.28
2022-08-30T01:04:33.512Z,3.30
2022-08-30T01:09:36.619Z,3.10
2022-08-30T01:14:38.625Z,3.10
2022-08-30T01:19:54.544Z,3.17
2022-08-30T01:24:59.030Z,3.28
2022-08-30T01:30:01.362Z,3.42
2022-08-30T01:35:03.268Z,3.20
2022-08-30T01:40:07.133Z,3.35
2022-08-30T01:45:09.776Z,3.17
2022-08-30T01:50:11.920Z,2.60
2022-08-30T01:55:13.828Z,3.03
2022-08-30T02:00:17.692Z,3.00
2022-08-30T02:05:19.760Z,3.28
2022-08-30T02:10:21.567Z,3.00
2022-08-30T02:15:23.416Z,2.85
2022-08-30T02:20:25.153Z,2.92
2022-08-30T02:25:26.924Z,3.17
2022-08-30T02:30:28.688Z,3.50
2022-08-30T02:35:30.773Z,3.00
2022-08-30T02:40:33.108Z,3.17
2022-08-30T02:45:35.057Z,3.38
2022-08-30T02:50:45.105Z,3.05
2022-08-30T02:55:48.245Z,3.42
2022-08-30T03:00:50.625Z,3.08
2022-08-30T03:05:54.360Z,3.28
2022-08-30T03:10:57.244Z,3.65
2022-08-30T03:15:59.002Z,3.40
2022-08-30T03:21:00.666Z,3.92
2022-08-30T03:26:02.593Z,3.72
2022-08-30T03:31:04.625Z,4.65
2022-08-30T03:36:08.588Z,4.82
2022-08-30T03:41:10.385Z,4.50
2022-08-30T03:46:12.709Z,4.63
2022-08-30T03:51:14.513Z,4.57
2022-08-30T03:56:16.944Z,4.50
2022-08-30T04:01:19.040Z,4.40
2022-08-30T04:06:20.721Z,4.43
2022-08-30T04:11:22.384Z,4.50
2022-08-30T04:16:25.376Z,4.55
2022-08-30T04:21:27.393Z,5.47
2022-08-30T04:26:29.624Z,4.95
2022-08-30T04:31:31.682Z,4.95
2022-08-30T04:36:33.950Z,4.60
2022-08-30T04:41:36.811Z,4.88
2022-08-30T04:46:38.461Z,5.25
2022-08-30T04:51:46.696Z,4.63
2022-08-30T04:56:48.329Z,5.32
2022-08-30T05:01:50.254Z,5.20
2022-08-30T05:06:52.936Z,5.75
2022-08-30T05:11:55.024Z,5.75
2022-08-30T05:16:56.754Z,5.13
2022-08-30T05:21:58.620Z,5.68
2022-08-30T05:27:00.485Z,4.60
2022-08-30T05:32:02.492Z,4.47
2022-08-30T05:37:04.399Z,4.35
2022-08-30T05:42:06.536Z,3.85
2022-08-30T05:47:08.360Z,3.60
2022-08-30T05:52:10.088Z,3.60
2022-08-30T05:57:12.151Z,4.13
2022-08-30T06:02:13.897Z,3.65
2022-08-30T06:07:16.480Z,3.20
2022-08-30T06:12:19.857Z,3.38
2022-08-30T06:17:21.763Z,3.97
2022-08-30T06:22:23.877Z,3.50
2022-08-30T06:27:25.878Z,4.18
2022-08-30T06:32:27.779Z,3.92
2022-08-30T06:37:30.310Z,3.42
2022-08-30T06:42:33.627Z,3.30
2022-08-30T06:47:35.603Z,3.50
2022-08-30T06:52:37.641Z,3.03
2022-08-30T06:57:40.090Z,3.20
2022-08-30T07:02:41.949Z,3.00
2022-08-30T07:07:43.980Z,3.58
2022-08-30T07:12:45.865Z,3.08
2022-08-30T07:18:05.853Z,3.80
2022-08-30T07:23:08.396Z,2.97
2022-08-30T07:28:10.835Z,3.35
2022-08-30T07:33:12.558Z,3.40
2022-08-30T07:38:15.066Z,2.70
2022-08-30T07:43:17.049Z,3.20
2022-08-30T07:48:18.764Z,2.65
2022-08-30T07:53:20.608Z,3.17
2022-08-30T07:58:22.525Z,2.85
2022-08-30T08:03:24.298Z,2.78
2022-08-30T08:08:26.189Z,2.70
2022-08-30T08:13:28.661Z,2.75
2022-08-30T08:18:34.490Z,3.03
2022-08-30T08:23:36.315Z,2.70
2022-08-30T08:28:38.020Z,3.30
2022-08-30T08:33:40.103Z,3.25
2022-08-30T08:38:41.896Z,2.90
2022-08-30T08:43:43.584Z,2.75
2022-08-30T08:49:00.018Z,2.55
2022-08-30T08:54:33.151Z,2.55
2022-08-30T08:59:35.017Z,2.75
2022-08-30T09:04:39.393Z,3.05
2022-08-30T09:09:43.153Z,2.60
2022-08-30T09:14:51.269Z,2.00
2022-08-30T09:20:00.063Z,2.95
2022-08-30T09:25:07.727Z,2.70
2022-08-30T09:30:20.400Z,2.50
2022-08-30T09:35:44.349Z,1.85
2022-08-30T09:40:52.089Z,2.42
2022-08-30T09:46:02.395Z,2.45
2022-08-30T09:51:15.797Z,2.38
2022-08-30T09:56:26.071Z,1.70
2022-08-30T10:01:32.265Z,2.30
2022-08-30T10:06:46.588Z,2.28
2022-08-30T10:12:00.465Z,2.08
2022-08-30T10:17:38.980Z,2.20
2022-08-30T10:22:48.241Z,1.83
2022-08-30T10:28:07.633Z,1.95
2022-08-30T10:33:25.491Z,2.25
2022-08-30T10:38:30.053Z,1.70
2022-08-30T10:43:50.840Z,1.90
2022-08-30T10:48:55.084Z,2.03
2022-08-30T10:54:15.644Z,2.10
2022-08-30T10:59:21.123Z,2.20
2022-08-30T11:04:45.587Z,1.83
2022-08-30T11:10:11.833Z,1.60
2022-08-30T11:15:23.111Z,2.03
2022-08-30T11:20:47.040Z,1.80
2022-08-30T11:25:58.104Z,1.88
2022-08-30T11:31:08.873Z,2.17
2022-08-30T11:36:37.434Z,1.70
2022-08-30T11:41:47.676Z,2.13
2022-08-30T11:46:58.827Z,3.65
2022-08-30T11:52:27.615Z,1.75
2022-08-30T11:57:49.858Z,1.70
2022-08-30T12:02:59.586Z,1.50
2022-08-30T12:08:04.511Z,1.70
2022-08-30T12:13:06.968Z,1.95
2022-08-30T12:18:28.676Z,1.83
2022-08-30T12:23:57.431Z,1.67
2022-08-30T12:29:12.983Z,2.38
2022-08-30T12:34:29.038Z,1.88
2022-08-30T12:39:39.699Z,1.65
2022-08-30T12:44:42.874Z,1.73
2022-08-30T12:49:46.373Z,1.95
2022-08-30T12:54:48.432Z,2.35
2022-08-30T12:59:59.339Z,1.80
2022-08-30T13:05:34.373Z,1.80
2022-08-30T13:10:36.425Z,1.65
2022-08-30T13:15:42.600Z,1.67
2022-08-30T13:20:47.138Z,2.40
2022-08-30T13:25:50.032Z,2.90
2022-08-30T13:30:52.829Z,1.70
2022-08-30T13:35:54.649Z,2.10
2022-08-30T13:40:56.591Z,1.63
2022-08-30T13:45:58.479Z,1.73
2022-08-30T13:51:00.737Z,2.05
2022-08-30T13:56:04.352Z,1.80
2022-08-30T14:01:06.359Z,2.30
2022-08-30T14:06:31.550Z,1.60
2022-08-30T14:11:30.869Z,2.10
2022-08-30T14:16:33.663Z,2.55
2022-08-30T14:21:36.149Z,2.25
2022-08-30T14:26:43.747Z,1.98
2022-08-30T14:31:51.072Z,2.08
2022-08-30T14:36:52.882Z,1.88
2022-08-30T14:41:55.941Z,1.83
2022-08-30T14:46:59.965Z,1.83
2022-08-30T14:52:02.322Z,2.15
2022-08-30T14:57:05.003Z,2.33
2022-08-30T15:02:06.725Z,2.00
2022-08-30T15:07:13.103Z,2.03
2022-08-30T15:12:15.377Z,2.00
2022-08-30T15:17:19.273Z,1.95
2022-08-30T15:22:20.948Z,1.48
2022-08-30T15:27:23.902Z,1.70
2022-08-30T15:32:25.967Z,1.90
2022-08-30T15:37:27.932Z,2.20
2022-08-30T15:42:33.709Z,2.10
2022-08-30T15:47:35.366Z,2.20
2022-08-30T15:52:37.696Z,7.05
2022-08-30T15:57:39.713Z,1.90
2022-08-30T16:02:42.386Z,1.70
2022-08-30T16:07:46.681Z,1.95
2022-08-30T16:12:48.338Z,1.85
2022-08-30T16:17:50.152Z,2.47
2022-08-30T16:22:52.312Z,2.50
2022-08-30T16:27:54.011Z,2.05
2022-08-30T16:32:55.899Z,2.35
2022-08-30T16:37:57.530Z,1.70
2022-08-30T16:42:59.321Z,2.33
2022-08-30T16:48:01.257Z,2.17
2022-08-30T16:53:04.013Z,2.60
2022-08-30T16:58:11.757Z,1.98
2022-08-30T17:03:15.523Z,4.05
2022-08-30T17:08:17.590Z,3.03
2022-08-30T17:13:21.954Z,1.80
2022-08-30T17:18:24.767Z,2.40
2022-08-30T17:23:26.561Z,3.83
2022-08-30T17:28:29.638Z,7.60
2022-08-30T17:33:32.407Z,4.60
2022-08-30T17:38:34.719Z,2.72
2022-08-30T17:43:39.608Z,3.50
2022-08-30T17:48:41.446Z,2.72
2022-08-30T17:53:43.276Z,3.10
2022-08-30T17:58:47.030Z,2.15
2022-08-30T18:03:51.211Z,2.97
2022-08-30T18:08:55.156Z,2.00
2022-08-30T18:13:57.128Z,2.63
2022-08-30T18:18:58.938Z,2.05
2022-08-30T18:24:00.864Z,2.08
2022-08-30T18:29:04.279Z,2.42
2022-08-30T18:34:07.010Z,2.13
2022-08-30T18:39:14.101Z,2.60
2022-08-30T18:44:27.933Z,3.60
2022-08-30T18:49:32.303Z,2.20
2022-08-30T18:54:39.313Z,2.17
2022-08-30T18:59:42.127Z,2.33
2022-08-30T19:04:45.713Z,2.40
2022-08-30T19:09:47.856Z,2.05
2022-08-30T19:14:50.013Z,1.70
2022-08-30T19:19:52.578Z,1.75
2022-08-30T19:24:54.205Z,2.03
2022-08-30T19:29:56.557Z,2.58
2022-08-30T19:34:58.745Z,2.70
2022-08-30T19:40:02.058Z,2.15
2022-08-30T19:45:06.285Z,1.98
2022-08-30T19:50:08.693Z,2.10
2022-08-30T19:55:11.886Z,2.50
2022-08-30T20:00:16.632Z,2.35
2022-08-30T20:05:18.597Z,2.60
2022-08-30T20:10:20.760Z,2.05
2022-08-30T20:15:27.574Z,2.30
2022-08-30T20:20:29.581Z,2.25
2022-08-30T20:25:31.265Z,2.10
2022-08-30T20:30:33.604Z,2.40
2022-08-30T20:35:36.552Z,2.50
2022-08-30T20:40:39.839Z,2.72
2022-08-30T20:45:42.000Z,2.30
2022-08-30T20:50:44.359Z,2.75
2022-08-30T20:55:47.564Z,2.33
2022-08-30T21:00:50.837Z,2.35
2022-08-30T21:05:52.562Z,2.85
2022-08-30T21:10:54.776Z,2.30
2022-08-30T21:16:00.624Z,2.45
2022-08-30T21:21:14.461Z,2.03
2022-08-30T21:26:17.794Z,2.28
2022-08-30T21:31:22.871Z,2.03
2022-08-30T21:36:45.317Z,2.50
2022-08-30T21:41:48.029Z,2.38
2022-08-30T21:46:52.169Z,2.80
2022-08-30T21:51:55.338Z,2.25
2022-08-30T21:57:02.510Z,2.20
2022-08-30T22:02:04.848Z,2.10
2022-08-30T22:07:08.270Z,2.47
2022-08-30T22:12:10.695Z,2.17
2022-08-30T22:17:12.909Z,2.60
2022-08-30T22:22:14.556Z,2.40
2022-08-30T22:27:16.253Z,2.72
2022-08-30T22:32:18.167Z,2.60
2022-08-30T22:37:19.855Z,2.70
2022-08-30T22:42:21.564Z,3.13
2022-08-30T22:47:23.419Z,2.42
2022-08-30T22:52:25.371Z,2.88
2022-08-30T22:57:27.593Z,2.70
2022-08-30T23:02:29.511Z,2.92
2022-08-30T23:07:31.562Z,3.00
2022-08-30T23:12:33.374Z,2.38
2022-08-30T23:17:38.693Z,2.53
2022-08-30T23:22:41.638Z,2.58
2022-08-30T23:28:03.254Z,2.35
2022-08-30T23:33:23.736Z,2.90
2022-08-30T23:38:44.097Z,2.70
2022-08-30T23:44:03.953Z,3.13
2022-08-30T23:49:24.426Z,2.90
2022-08-30T23:54:44.769Z,2.70
